createdAt,value
2018-07-19T00:02:44.294Z,3.90
2018-07-19T00:05:47.899Z,4.00
2018-07-19T00:08:51.448Z,3.57
2018-07-19T00:11:55.086Z,3.50
2018-07-19T00:14:58.702Z,3.83
2018-07-19T00:18:02.330Z,4.00
2018-07-19T00:21:05.990Z,3.70
2018-07-19T00:24:09.517Z,3.50
2018-07-19T00:27:13.103Z,3.80
2018-07-19T00:30:16.738Z,3.70
2018-07-19T00:33:20.480Z,3.80
2018-07-19T00:36:24.269Z,3.67
2018-07-19T00:39:28.047Z,3.90
2018-07-19T00:42:31.693Z,4.00
2018-07-19T00:45:35.379Z,3.67
2018-07-19T00:48:39.113Z,3.90
2018-07-19T00:51:42.697Z,3.97
2018-07-19T00:54:46.298Z,4.00
2018-07-19T00:57:49.813Z,4.10
2018-07-19T01:00:53.567Z,3.90
2018-07-19T01:03:57.160Z,4.07
2018-07-19T01:07:00.854Z,4.40
2018-07-19T01:10:04.603Z,4.00
2018-07-19T01:13:09.441Z,4.00
2018-07-19T01:16:13.233Z,4.03
2018-07-19T01:19:17.028Z,3.67
2018-07-19T01:22:20.645Z,4.40
2018-07-19T01:25:24.331Z,4.00
2018-07-19T01:28:28.088Z,3.73
2018-07-19T01:31:31.723Z,3.80
2018-07-19T01:34:35.290Z,3.90
2018-07-19T01:37:38.948Z,4.53
2018-07-19T01:40:42.680Z,3.80
2018-07-19T01:43:46.285Z,3.87
2018-07-19T01:46:49.874Z,3.80
2018-07-19T01:49:53.595Z,4.33
2018-07-19T01:52:57.388Z,4.43
2018-07-19T01:56:01.036Z,4.17
2018-07-19T01:59:04.663Z,3.90
2018-07-19T02:02:08.523Z,4.43
2018-07-19T02:05:12.178Z,4.33
2018-07-19T02:08:15.778Z,4.40
2018-07-19T02:11:19.364Z,4.20
2018-07-19T02:14:23.228Z,4.90
2018-07-19T02:17:26.859Z,4.77
2018-07-19T02:20:30.418Z,4.33
2018-07-19T02:23:34.110Z,4.47
2018-07-19T02:26:37.661Z,4.67
2018-07-19T02:29:41.284Z,4.53
2018-07-19T02:32:44.930Z,4.60
2018-07-19T02:35:48.571Z,5.00
2018-07-19T02:38:52.208Z,5.60
2018-07-19T02:41:55.919Z,4.57
2018-07-19T02:44:59.479Z,4.97
2018-07-19T02:48:03.141Z,4.90
2018-07-19T02:51:06.854Z,4.67
2018-07-19T02:54:10.700Z,4.30
2018-07-19T02:57:14.368Z,4.47
2018-07-19T03:00:18.065Z,4.30
2018-07-19T03:03:21.726Z,4.27
2018-07-19T03:06:25.452Z,4.20
2018-07-19T03:09:29.159Z,4.23
2018-07-19T03:12:32.845Z,4.77
2018-07-19T03:15:36.513Z,4.47
2018-07-19T03:18:40.204Z,4.00
2018-07-19T03:21:43.774Z,4.70
2018-07-19T03:24:47.620Z,4.50
2018-07-19T03:27:51.280Z,4.40
2018-07-19T03:30:55.193Z,5.20
2018-07-19T03:33:58.790Z,5.00
2018-07-19T03:37:02.311Z,4.90
2018-07-19T03:40:05.952Z,4.30
2018-07-19T03:43:09.520Z,4.50
2018-07-19T03:46:13.094Z,4.23
2018-07-19T03:49:16.754Z,4.57
2018-07-19T03:52:20.346Z,3.90
2018-07-19T03:55:23.922Z,4.27
2018-07-19T03:58:27.600Z,4.20
2018-07-19T04:01:31.150Z,3.80
2018-07-19T04:04:34.735Z,3.50
2018-07-19T04:07:38.319Z,3.40
2018-07-19T04:10:41.909Z,3.57
2018-07-19T04:13:45.631Z,3.47
2018-07-19T04:16:49.298Z,3.70
2018-07-19T04:19:52.903Z,3.20
2018-07-19T04:22:56.815Z,3.53
2018-07-19T04:26:00.514Z,3.20
2018-07-19T04:29:04.261Z,2.93
2018-07-19T04:32:08.169Z,2.90
2018-07-19T04:35:11.744Z,3.00
2018-07-19T04:38:15.380Z,2.67
2018-07-19T04:41:19.031Z,2.90
2018-07-19T04:44:22.665Z,2.80
2018-07-19T04:47:26.339Z,2.90
2018-07-19T04:50:29.899Z,3.20
2018-07-19T04:53:33.594Z,2.80
2018-07-19T04:56:37.236Z,3.13
2018-07-19T04:59:40.867Z,3.00
2018-07-19T05:02:44.501Z,2.97
2018-07-19T05:05:48.131Z,2.93
2018-07-19T05:08:51.881Z,3.30
2018-07-19T05:11:55.519Z,3.13
2018-07-19T05:14:59.171Z,2.87
2018-07-19T05:18:02.885Z,2.93
2018-07-19T05:21:06.625Z,3.03
2018-07-19T05:24:10.339Z,3.17
2018-07-19T05:27:13.915Z,3.50
2018-07-19T05:30:17.523Z,3.77
2018-07-19T05:33:21.245Z,3.60
2018-07-19T05:36:24.961Z,3.80
2018-07-19T05:39:29.475Z,3.60
2018-07-19T05:42:33.270Z,4.17
2018-07-19T05:45:36.934Z,3.50
2018-07-19T05:48:40.573Z,3.93
2018-07-19T05:51:44.158Z,3.50
2018-07-19T05:54:47.762Z,3.40
2018-07-19T05:57:51.357Z,3.30
2018-07-19T06:00:55.091Z,3.13
2018-07-19T06:03:58.683Z,3.20
2018-07-19T06:07:02.421Z,3.20
2018-07-19T06:10:05.971Z,2.73
2018-07-19T06:13:09.687Z,3.33
2018-07-19T06:16:14.819Z,3.03
2018-07-19T06:19:18.553Z,3.00
2018-07-19T06:22:22.348Z,3.23
2018-07-19T06:25:26.237Z,3.03
2018-07-19T06:28:29.958Z,3.07
2018-07-19T06:31:33.793Z,3.13
2018-07-19T06:34:37.493Z,2.73
2018-07-19T06:37:41.182Z,2.77
2018-07-19T06:40:44.831Z,2.50
2018-07-19T06:43:48.564Z,2.30
2018-07-19T06:46:52.261Z,2.50
2018-07-19T06:49:56.037Z,2.37
2018-07-19T06:52:59.646Z,2.80
2018-07-19T06:56:03.381Z,2.43
2018-07-19T06:59:07.046Z,2.90
2018-07-19T07:02:10.845Z,3.23
2018-07-19T07:05:14.473Z,2.70
2018-07-19T07:08:18.139Z,3.00
2018-07-19T07:11:21.960Z,2.93
2018-07-19T07:14:25.657Z,3.40
2018-07-19T07:17:29.362Z,3.37
2018-07-19T07:20:32.889Z,2.80
2018-07-19T07:23:36.628Z,3.27
2018-07-19T07:26:40.398Z,3.30
2018-07-19T07:29:44.001Z,3.17
2018-07-19T07:32:47.603Z,3.07
2018-07-19T07:35:51.354Z,3.40
2018-07-19T07:38:55.054Z,3.23
2018-07-19T07:41:58.661Z,3.40
2018-07-19T07:45:02.500Z,3.10
2018-07-19T07:48:07.358Z,3.17
2018-07-19T07:51:11.222Z,3.00
2018-07-19T07:54:14.809Z,3.03
2018-07-19T07:57:19.087Z,3.43
2018-07-19T08:00:22.919Z,2.90
2018-07-19T08:03:26.572Z,2.80
2018-07-19T08:06:30.238Z,3.17
2018-07-19T08:09:33.844Z,3.03
2018-07-19T08:12:37.635Z,3.10
2018-07-19T08:15:41.350Z,3.80
2018-07-19T08:18:45.018Z,2.90
2018-07-19T08:21:48.622Z,3.13
2018-07-19T08:24:52.393Z,3.20
2018-07-19T08:27:55.959Z,3.10
2018-07-19T08:30:59.548Z,3.00
2018-07-19T08:34:03.224Z,2.80
2018-07-19T08:37:06.900Z,3.30
2018-07-19T08:40:11.452Z,3.07
2018-07-19T08:43:15.087Z,3.20
2018-07-19T08:46:18.879Z,3.20
2018-07-19T08:49:22.514Z,3.00
2018-07-19T08:52:26.187Z,2.97
2018-07-19T08:55:29.790Z,3.10
2018-07-19T08:58:33.689Z,3.00
2018-07-19T09:01:37.335Z,3.27
2018-07-19T09:04:41.164Z,3.10
2018-07-19T09:07:44.839Z,2.83
2018-07-19T09:10:48.433Z,3.30
2018-07-19T09:13:52.034Z,3.13
2018-07-19T09:16:55.813Z,3.10
2018-07-19T09:19:59.404Z,3.20
2018-07-19T09:23:04.748Z,3.07
2018-07-19T09:26:08.384Z,2.97
2018-07-19T09:29:12.049Z,3.20
2018-07-19T09:32:15.757Z,3.53
2018-07-19T09:35:19.483Z,3.23
2018-07-19T09:38:23.406Z,3.23
2018-07-19T09:41:26.879Z,3.20
2018-07-19T09:44:30.753Z,3.30
2018-07-19T09:47:34.416Z,3.80
2018-07-19T09:50:38.059Z,3.17
2018-07-19T09:53:41.629Z,3.00
2018-07-19T09:56:45.184Z,3.00
2018-07-19T09:59:48.763Z,3.17
2018-07-19T10:02:52.391Z,3.40
2018-07-19T10:05:56.000Z,3.60
2018-07-19T10:08:59.645Z,3.27
2018-07-19T10:12:03.354Z,3.40
2018-07-19T10:15:06.961Z,3.50
2018-07-19T10:18:10.703Z,3.27
2018-07-19T10:21:14.344Z,3.57
2018-07-19T10:24:18.043Z,3.40
2018-07-19T10:27:21.609Z,3.40
2018-07-19T10:30:25.398Z,3.57
2018-07-19T10:33:29.057Z,4.10
2018-07-19T10:36:32.689Z,4.27
2018-07-19T10:39:36.333Z,4.00
2018-07-19T10:42:39.958Z,3.80
2018-07-19T10:45:43.521Z,3.90
2018-07-19T10:48:47.145Z,3.67
2018-07-19T10:51:50.807Z,4.00
2018-07-19T10:54:54.310Z,3.80
2018-07-19T10:57:57.910Z,3.73
2018-07-19T11:01:01.550Z,3.73
2018-07-19T11:04:05.244Z,3.80
2018-07-19T11:07:08.915Z,4.40
2018-07-19T11:10:12.602Z,4.20
2018-07-19T11:13:16.140Z,3.53
2018-07-19T11:16:19.803Z,3.93
2018-07-19T11:19:23.501Z,4.30
2018-07-19T11:22:27.148Z,3.97
2018-07-19T11:25:30.917Z,3.83
2018-07-19T11:28:34.675Z,3.63
2018-07-19T11:31:38.420Z,3.73
2018-07-19T11:34:42.011Z,3.60
2018-07-19T11:37:45.640Z,4.00
2018-07-19T11:40:49.310Z,4.00
2018-07-19T11:43:52.820Z,3.80
2018-07-19T11:46:56.461Z,4.10
2018-07-19T11:50:00.151Z,4.27
2018-07-19T11:53:03.760Z,3.90
2018-07-19T11:56:07.324Z,4.23
2018-07-19T11:59:10.964Z,4.30
2018-07-19T12:02:14.581Z,4.20
2018-07-19T12:05:21.897Z,5.10
2018-07-19T12:08:30.119Z,4.10
2018-07-19T12:11:33.779Z,4.13
2018-07-19T12:14:37.931Z,3.53
2018-07-19T12:17:41.635Z,3.60
2018-07-19T12:20:45.274Z,3.43
2018-07-19T12:23:49.081Z,3.80
2018-07-19T12:26:52.996Z,3.53
2018-07-19T12:29:56.508Z,3.40
2018-07-19T12:33:00.190Z,3.60
2018-07-19T12:36:03.897Z,3.97
2018-07-19T12:39:09.866Z,3.80
2018-07-19T12:42:13.489Z,3.70
2018-07-19T12:45:17.161Z,3.97
2018-07-19T12:48:20.764Z,4.00
2018-07-19T12:51:24.455Z,3.60
2018-07-19T12:54:28.087Z,3.97
2018-07-19T12:57:31.872Z,3.90
2018-07-19T13:00:35.516Z,3.47
2018-07-19T13:03:39.080Z,3.77
2018-07-19T13:06:42.661Z,3.97
2018-07-19T13:09:46.302Z,3.53
2018-07-19T13:12:50.354Z,4.03
2018-07-19T13:15:54.115Z,3.97
2018-07-19T13:18:57.757Z,3.60
2018-07-19T13:22:01.382Z,4.10
2018-07-19T13:25:05.533Z,4.30
2018-07-19T13:28:09.124Z,4.17
2018-07-19T13:31:12.826Z,3.70
2018-07-19T13:34:16.453Z,4.17
2018-07-19T13:37:20.347Z,3.80
2018-07-19T13:40:23.857Z,4.10
2018-07-19T13:43:27.424Z,4.47
2018-07-19T13:46:31.046Z,4.37
2018-07-19T13:49:34.851Z,4.57
2018-07-19T13:52:49.587Z,4.40
2018-07-19T13:55:53.272Z,4.30
2018-07-19T13:58:57.012Z,4.17
2018-07-19T14:02:00.625Z,4.90
2018-07-19T14:05:04.293Z,4.27
2018-07-19T14:08:07.856Z,4.50
2018-07-19T14:11:11.428Z,4.40
2018-07-19T14:14:15.098Z,4.50
2018-07-19T14:17:18.818Z,4.47
2018-07-19T14:20:22.593Z,4.47
2018-07-19T14:23:26.370Z,5.33
2018-07-19T14:26:30.162Z,4.67
2018-07-19T14:29:33.852Z,4.20
2018-07-19T14:32:37.492Z,4.73
2018-07-19T14:35:41.222Z,4.33
2018-07-19T14:38:44.914Z,4.20
2018-07-19T14:41:48.497Z,4.27
2018-07-19T14:44:52.234Z,4.13
2018-07-19T14:47:55.837Z,4.40
2018-07-19T14:50:59.673Z,4.50
2018-07-19T14:54:03.268Z,4.23
2018-07-19T14:57:06.882Z,3.87
2018-07-19T15:00:10.627Z,4.40
2018-07-19T15:03:14.280Z,4.37
2018-07-19T15:06:17.918Z,4.53
2018-07-19T15:09:21.697Z,4.63
2018-07-19T15:12:25.353Z,4.47
2018-07-19T15:15:28.926Z,4.37
2018-07-19T15:18:32.523Z,4.30
2018-07-19T15:21:36.112Z,4.20
2018-07-19T15:24:39.816Z,4.37
2018-07-19T15:27:43.626Z,4.07
2018-07-19T15:30:47.178Z,4.27
2018-07-19T15:33:50.738Z,4.63
2018-07-19T15:36:54.382Z,4.47
2018-07-19T15:39:58.252Z,4.40
2018-07-19T15:43:01.898Z,4.30
2018-07-19T15:46:05.506Z,4.27
2018-07-19T15:49:09.206Z,4.33
2018-07-19T15:52:12.826Z,4.50
2018-07-19T15:55:16.504Z,4.27
2018-07-19T15:58:20.264Z,4.57
2018-07-19T16:01:23.968Z,4.27
2018-07-19T16:04:27.563Z,4.47
2018-07-19T16:07:31.198Z,4.33
2018-07-19T16:10:34.759Z,4.83
2018-07-19T16:13:38.367Z,3.83
2018-07-19T16:16:42.078Z,4.23
2018-07-19T16:19:45.638Z,4.37
2018-07-19T16:22:49.362Z,4.00
2018-07-19T16:25:53.161Z,3.60
2018-07-19T16:28:56.945Z,4.77
2018-07-19T16:32:00.702Z,4.30
2018-07-19T16:35:04.459Z,4.10
2018-07-19T16:38:08.154Z,4.30
2018-07-19T16:41:11.663Z,4.00
2018-07-19T16:44:15.251Z,4.40
2018-07-19T16:47:18.874Z,4.30
2018-07-19T16:50:22.630Z,4.27
2018-07-19T16:53:26.420Z,4.33
2018-07-19T17:03:54.824Z,4.07
2018-07-19T17:06:58.491Z,3.97
2018-07-19T17:10:02.056Z,4.07
2018-07-19T17:13:05.972Z,3.40
2018-07-19T17:16:09.629Z,3.33
2018-07-19T17:19:13.324Z,3.53
2018-07-19T17:22:16.954Z,4.03
2018-07-19T17:25:20.944Z,3.60
2018-07-19T17:28:24.599Z,3.70
2018-07-19T17:31:28.358Z,3.53
2018-07-19T17:34:32.118Z,4.00
2018-07-19T17:37:35.914Z,4.00
2018-07-19T17:40:39.920Z,3.70
2018-07-19T17:43:43.579Z,4.10
2018-07-19T17:46:47.207Z,3.70
2018-07-19T17:49:50.879Z,4.20
2018-07-19T17:52:54.520Z,3.63
2018-07-19T17:55:58.181Z,4.20
2018-07-19T17:59:01.889Z,3.80
2018-07-19T18:02:05.619Z,3.80
2018-07-19T18:05:14.658Z,4.20
2018-07-19T18:08:18.325Z,3.73
2018-07-19T18:11:21.964Z,3.97
2018-07-19T18:14:25.523Z,3.77
2018-07-19T18:17:29.199Z,3.70
2018-07-19T18:20:32.795Z,3.60
2018-07-19T18:23:36.659Z,3.40
2018-07-19T18:26:40.452Z,4.20
2018-07-19T18:29:44.215Z,3.90
2018-07-19T18:32:47.798Z,4.27
2018-07-19T18:35:51.481Z,4.20
2018-07-19T18:38:55.205Z,4.20
2018-07-19T18:41:58.909Z,4.63
2018-07-19T18:45:02.680Z,4.23
2018-07-19T18:48:06.488Z,4.43
2018-07-19T18:51:10.101Z,4.40
2018-07-19T18:54:13.661Z,4.53
2018-07-19T18:57:17.404Z,4.50
2018-07-19T19:00:21.101Z,4.83
2018-07-19T19:03:24.741Z,4.80
2018-07-19T19:06:28.380Z,5.07
2018-07-19T19:09:32.055Z,4.57
2018-07-19T19:12:35.779Z,4.80
2018-07-19T19:15:39.402Z,4.43
2018-07-19T19:18:43.320Z,4.60
2018-07-19T19:21:47.242Z,4.30
2018-07-19T19:24:51.023Z,4.90
2018-07-19T19:27:54.744Z,4.80
2018-07-19T19:30:58.301Z,4.60
2018-07-19T19:34:01.935Z,4.87
2018-07-19T19:37:05.692Z,4.97
2018-07-19T19:40:09.319Z,5.17
2018-07-19T19:43:12.932Z,5.07
2018-07-19T19:46:16.632Z,4.63
2018-07-19T19:49:20.291Z,5.00
2018-07-19T19:52:23.994Z,4.77
2018-07-19T19:55:27.680Z,5.07
2018-07-19T19:58:31.430Z,4.70
2018-07-19T20:01:35.360Z,5.00
2018-07-19T20:04:39.689Z,4.63
2018-07-19T20:07:43.500Z,5.17
2018-07-19T20:10:47.240Z,5.17
2018-07-19T20:13:50.981Z,4.80
2018-07-19T20:16:54.843Z,4.50
2018-07-19T20:19:58.526Z,5.10
2018-07-19T20:23:02.221Z,4.77
2018-07-19T20:26:07.742Z,4.87
2018-07-19T20:29:11.420Z,5.73
2018-07-19T20:32:15.159Z,5.47
2018-07-19T20:35:18.775Z,5.30
2018-07-19T20:38:22.465Z,5.53
2018-07-19T20:41:26.036Z,5.13
2018-07-19T20:44:29.755Z,4.77
2018-07-19T20:47:33.397Z,5.13
2018-07-19T20:50:37.121Z,5.30
2018-07-19T20:53:40.755Z,5.27
2018-07-19T20:56:44.556Z,5.37
2018-07-19T20:59:48.246Z,5.37
2018-07-19T21:02:51.986Z,4.70
2018-07-19T21:05:55.917Z,5.03
2018-07-19T21:08:59.542Z,5.50
2018-07-19T21:12:03.406Z,6.37
2018-07-19T21:15:07.407Z,4.97
2018-07-19T21:18:11.052Z,5.53
2018-07-19T21:21:14.553Z,5.70
2018-07-19T21:24:18.374Z,5.20
2018-07-19T21:27:22.582Z,5.77
2018-07-19T21:30:26.368Z,4.90
2018-07-19T21:33:29.973Z,5.37
2018-07-19T21:36:33.812Z,5.70
2018-07-19T21:39:37.436Z,5.90
2018-07-19T21:42:41.375Z,5.63
2018-07-19T21:45:45.016Z,5.70
2018-07-19T21:48:48.633Z,5.80
2018-07-19T21:51:52.261Z,5.93
2018-07-19T21:54:55.870Z,6.10
2018-07-19T21:57:59.507Z,5.90
2018-07-19T22:01:08.466Z,5.90
2018-07-19T22:04:12.160Z,6.70
2018-07-19T22:07:15.807Z,6.43
2018-07-19T22:10:19.538Z,6.30
2018-07-19T22:13:23.267Z,6.10
2018-07-19T22:16:26.915Z,5.77
2018-07-19T22:19:30.522Z,5.57
2018-07-19T22:22:34.177Z,6.00
2018-07-19T22:25:38.042Z,5.73
2018-07-19T22:28:41.587Z,5.90
2018-07-19T22:31:45.257Z,5.73
2018-07-19T22:34:48.940Z,5.70
2018-07-19T22:37:52.632Z,5.67
2018-07-19T22:40:56.273Z,5.70
2018-07-19T22:43:59.927Z,6.10
2018-07-19T22:47:03.570Z,6.50
2018-07-19T22:50:07.730Z,5.70
2018-07-19T22:53:11.354Z,5.70
2018-07-19T22:56:15.123Z,5.50
2018-07-19T22:59:18.726Z,5.80
2018-07-19T23:02:22.408Z,5.70
2018-07-19T23:05:26.136Z,5.80
2018-07-19T23:08:29.842Z,6.00
2018-07-19T23:11:33.382Z,5.80
2018-07-19T23:14:37.172Z,5.70
2018-07-19T23:17:40.898Z,6.10
2018-07-19T23:20:44.568Z,5.50
2018-07-19T23:23:48.343Z,6.37
2018-07-19T23:26:52.008Z,6.13
2018-07-19T23:29:55.850Z,6.47
2018-07-19T23:32:59.726Z,6.60
2018-07-19T23:36:06.197Z,6.33
2018-07-19T23:39:16.477Z,6.63
2018-07-19T23:42:24.188Z,6.60
2018-07-19T23:45:32.862Z,5.80
2018-07-19T23:48:36.501Z,7.20
2018-07-19T23:51:40.079Z,6.40
2018-07-19T23:54:43.693Z,6.60
2018-07-19T23:57:47.309Z,6.33
